createdAt,value
2022-08-22T00:03:02.939Z,2.45
2022-08-22T00:03:27.912Z,0.98
2022-08-22T00:08:34.958Z,0.51
2022-08-22T00:13:42.247Z,0.18
2022-08-22T00:18:48.896Z,0.01
2022-08-22T00:23:56.203Z,0.36
2022-08-22T00:29:03.144Z,0.02
2022-08-22T00:34:09.992Z,0.02
2022-08-22T00:39:17.445Z,0.01
2022-08-22T00:44:24.366Z,0.00
2022-08-22T00:49:31.712Z,0.00
2022-08-22T00:54:38.656Z,0.00
2022-08-22T00:59:45.478Z,0.01
2022-08-22T01:04:53.017Z,0.00
2022-08-22T01:09:59.870Z,0.00
2022-08-22T01:15:06.712Z,0.00
2022-08-22T01:20:14.133Z,0.00
2022-08-22T01:25:22.369Z,0.00
2022-08-22T01:30:28.196Z,0.00
2022-08-22T01:35:35.006Z,0.01
2022-08-22T01:40:53.411Z,0.00
2022-08-22T01:45:49.258Z,0.00
2022-08-22T01:50:56.547Z,0.00
2022-08-22T01:56:03.361Z,0.38
2022-08-22T02:01:10.679Z,1.89
2022-08-22T02:06:17.956Z,1.03
2022-08-22T02:11:24.866Z,1.72
2022-08-22T02:16:31.713Z,1.39
2022-08-22T02:21:39.170Z,0.73
2022-08-22T02:26:45.891Z,1.86
2022-08-22T02:31:53.358Z,2.46
2022-08-22T02:37:00.219Z,0.28
2022-08-22T02:42:07.577Z,0.00
2022-08-22T02:47:14.391Z,0.00
2022-08-22T02:52:21.903Z,0.00
2022-08-22T02:57:28.708Z,0.55
2022-08-22T03:02:35.486Z,2.91
2022-08-22T03:07:42.951Z,0.98
2022-08-22T03:12:49.692Z,0.37
2022-08-22T03:17:57.107Z,2.17
2022-08-22T03:23:03.993Z,2.74
2022-08-22T03:28:11.237Z,2.66
2022-08-22T03:33:18.313Z,2.49
2022-08-22T03:38:25.314Z,0.73
2022-08-22T03:43:32.622Z,0.00
2022-08-22T03:48:39.473Z,0.01
2022-08-22T03:53:46.926Z,0.00
2022-08-22T03:58:53.725Z,0.00
2022-08-22T04:04:01.444Z,0.21
2022-08-22T04:09:07.823Z,2.36
2022-08-22T04:14:15.166Z,1.57
2022-08-22T04:19:21.971Z,0.91
2022-08-22T04:24:29.252Z,1.26
2022-08-22T04:29:36.332Z,1.20
2022-08-22T04:34:43.280Z,0.13
2022-08-22T04:39:50.731Z,0.74
2022-08-22T04:44:57.527Z,3.85
2022-08-22T04:50:04.828Z,2.43
2022-08-22T04:55:11.633Z,2.30
2022-08-22T05:00:18.962Z,2.23
2022-08-22T05:05:25.819Z,2.76
2022-08-22T05:10:33.246Z,2.32
2022-08-22T05:15:40.068Z,1.03
2022-08-22T05:20:47.579Z,0.33
2022-08-22T05:25:54.536Z,2.96
2022-08-22T05:31:01.311Z,4.22
2022-08-22T05:36:08.604Z,0.44
2022-08-22T05:41:15.569Z,1.32
2022-08-22T05:46:26.919Z,0.17
2022-08-22T05:51:29.951Z,0.00
2022-08-22T05:56:36.814Z,0.81
2022-08-22T06:01:44.347Z,0.12
2022-08-22T06:06:51.368Z,1.10
2022-08-22T06:11:58.266Z,1.18
2022-08-22T06:17:05.040Z,1.89
2022-08-22T06:22:13.814Z,2.27
2022-08-22T06:27:20.360Z,2.38
2022-08-22T06:32:52.896Z,2.42
2022-08-22T06:37:33.504Z,1.64
2022-08-22T06:42:41.724Z,1.65
2022-08-22T06:47:50.183Z,1.82
2022-08-22T06:52:54.992Z,1.55
2022-08-22T06:58:02.328Z,1.57
2022-08-22T07:03:09.206Z,2.33
2022-08-22T07:08:16.617Z,3.44
2022-08-22T07:13:23.423Z,2.49
2022-08-22T07:18:30.781Z,2.14
2022-08-22T07:23:38.399Z,4.08
2022-08-22T07:28:50.810Z,3.50
2022-08-22T07:33:52.114Z,2.44
2022-08-22T07:38:59.418Z,5.40
2022-08-22T07:44:06.430Z,2.61
2022-08-22T07:49:13.433Z,4.30
2022-08-22T07:54:20.809Z,7.12
2022-08-22T07:59:27.602Z,6.98
2022-08-22T08:04:39.487Z,5.29
2022-08-22T08:09:41.768Z,7.22
2022-08-22T08:14:49.086Z,6.94
2022-08-22T08:19:56.412Z,4.30
2022-08-22T08:25:03.296Z,5.29
2022-08-22T08:25:03.314Z,5.29
2022-08-22T08:30:15.080Z,6.31
2022-08-22T08:35:17.718Z,11.34
2022-08-22T08:40:24.739Z,8.28
2022-08-22T08:45:32.877Z,8.89
2022-08-22T08:50:39.143Z,9.61
2022-08-22T08:55:45.932Z,9.82
2022-08-22T09:00:53.313Z,7.92
2022-08-22T09:06:00.557Z,6.60
2022-08-22T09:11:09.757Z,6.95
2022-08-22T09:16:14.856Z,7.90
2022-08-22T09:21:30.657Z,11.41
2022-08-22T09:26:29.002Z,8.66
2022-08-22T09:31:51.411Z,8.48
2022-08-22T09:36:43.173Z,10.02
2022-08-22T09:41:51.632Z,7.23
2022-08-22T09:46:57.416Z,7.75
2022-08-22T09:52:15.121Z,8.49
2022-08-22T09:57:13.922Z,9.94
2022-08-22T10:02:18.871Z,7.28
2022-08-22T10:07:26.151Z,7.83
2022-08-22T10:12:36.374Z,7.88
2022-08-22T10:17:41.111Z,6.96
2022-08-22T10:22:47.329Z,6.10
2022-08-22T10:27:54.606Z,4.44
2022-08-22T10:33:02.060Z,8.84
2022-08-22T10:38:10.705Z,7.19
2022-08-22T10:43:16.514Z,9.27
2022-08-22T10:48:23.956Z,8.26
2022-08-22T10:53:32.404Z,5.33
2022-08-22T10:58:40.892Z,6.88
2022-08-22T11:08:51.809Z,5.02
2022-08-22T11:13:58.594Z,7.36
2022-08-22T11:19:14.989Z,5.67
2022-08-22T11:24:17.421Z,8.27
2022-08-22T11:29:20.170Z,7.23
2022-08-22T11:34:27.410Z,5.42
2022-08-22T11:39:34.771Z,5.38
2022-08-22T11:44:50.020Z,7.91
2022-08-22T11:49:48.828Z,10.24
2022-08-22T11:54:56.090Z,9.49
2022-08-22T12:00:03.866Z,7.83
2022-08-22T12:05:10.159Z,8.53
2022-08-22T12:10:17.768Z,6.06
2022-08-22T12:15:24.648Z,7.00
2022-08-22T12:20:31.858Z,5.16
2022-08-22T12:25:38.637Z,10.27
2022-08-22T12:30:45.882Z,9.27
2022-08-22T12:35:53.367Z,6.00
2022-08-22T12:41:00.167Z,9.25
2022-08-22T12:46:07.463Z,4.72
2022-08-22T12:51:17.297Z,7.40
2022-08-22T12:56:22.590Z,7.62
2022-08-22T13:01:33.854Z,8.96
2022-08-22T13:06:35.831Z,8.80
2022-08-22T13:11:43.059Z,7.82
2022-08-22T13:16:50.990Z,8.08
2022-08-22T13:21:57.403Z,6.70
2022-08-22T13:27:05.788Z,10.09
2022-08-22T13:32:11.458Z,5.67
2022-08-22T13:37:20.173Z,7.72
2022-08-22T13:42:30.521Z,8.98
2022-08-22T13:47:34.386Z,8.03
2022-08-22T13:52:40.023Z,8.00
2022-08-22T13:57:52.032Z,6.56
2022-08-22T14:02:54.204Z,8.23
2022-08-22T14:08:01.724Z,8.46
2022-08-22T14:13:08.773Z,7.72
2022-08-22T14:18:15.569Z,8.91
2022-08-22T14:23:23.902Z,6.73
2022-08-22T14:28:29.845Z,5.90
2022-08-22T14:33:40.001Z,6.27
2022-08-22T14:38:46.080Z,7.20
2022-08-22T14:43:51.469Z,8.64
2022-08-22T14:48:58.428Z,6.91
2022-08-22T14:54:05.869Z,5.30
2022-08-22T14:59:12.632Z,7.32
2022-08-22T15:04:20.096Z,7.83
2022-08-22T15:09:26.882Z,9.21
2022-08-22T15:14:34.217Z,8.96
2022-08-22T15:24:48.202Z,8.57
2022-08-22T15:29:55.478Z,8.40
2022-08-22T15:35:03.034Z,6.09
2022-08-22T15:35:03.098Z,6.09
2022-08-22T15:40:11.863Z,7.60
2022-08-22T15:45:16.874Z,8.64
2022-08-22T15:50:24.139Z,6.54
2022-08-22T15:55:31.019Z,7.91
2022-08-22T16:00:41.959Z,4.43
2022-08-22T16:05:45.504Z,7.01
2022-08-22T16:10:52.383Z,6.26
2022-08-22T16:15:59.694Z,5.02
2022-08-22T16:21:06.421Z,7.05
2022-08-22T16:26:13.655Z,4.93
2022-08-22T16:31:21.082Z,7.08
2022-08-22T16:36:28.002Z,7.10
2022-08-22T16:41:35.283Z,8.73
2022-08-22T16:46:42.064Z,7.71
2022-08-22T16:51:49.441Z,6.73
2022-08-22T16:56:56.742Z,9.14
2022-08-22T17:02:03.520Z,6.89
2022-08-22T17:07:10.832Z,7.69
2022-08-22T17:12:17.602Z,6.84
2022-08-22T17:17:24.804Z,4.39
2022-08-22T17:22:32.075Z,6.09
2022-08-22T17:27:39.456Z,7.77
2022-08-22T17:32:46.230Z,8.40
2022-08-22T17:37:53.482Z,6.74
2022-08-22T17:43:00.318Z,6.36
2022-08-22T17:48:07.822Z,5.04
2022-08-22T17:53:16.655Z,7.96
2022-08-22T17:58:37.557Z,8.28
2022-08-22T18:03:28.840Z,9.21
2022-08-22T18:08:37.812Z,7.48
2022-08-22T18:13:43.093Z,7.66
2022-08-22T18:18:50.454Z,7.72
2022-08-22T18:23:57.339Z,9.80
2022-08-22T18:29:04.725Z,9.01
2022-08-22T18:34:11.524Z,8.61
2022-08-22T18:39:18.965Z,6.72
2022-08-22T18:44:25.753Z,9.44
2022-08-22T18:49:33.245Z,8.24
2022-08-22T18:54:40.158Z,8.97
2022-08-22T18:59:46.952Z,8.68
2022-08-22T19:04:54.348Z,6.47
2022-08-22T19:10:01.601Z,6.54
2022-08-22T19:15:08.476Z,6.08
2022-08-22T19:20:15.864Z,6.80
2022-08-22T19:25:22.624Z,4.97
2022-08-22T19:30:30.000Z,5.88
2022-08-22T19:35:36.928Z,6.11
2022-08-22T19:40:44.255Z,4.10
2022-08-22T19:45:51.092Z,4.21
2022-08-22T19:50:58.365Z,5.31
2022-08-22T19:56:05.267Z,4.60
2022-08-22T20:01:12.566Z,6.24
2022-08-22T20:06:40.671Z,4.36
2022-08-22T20:11:26.799Z,6.12
2022-08-22T20:16:33.581Z,6.80
2022-08-22T20:21:40.986Z,5.46
2022-08-22T20:27:12.212Z,3.88
2022-08-22T20:31:58.656Z,4.35
2022-08-22T20:37:23.740Z,6.45
2022-08-22T20:42:09.245Z,4.11
2022-08-22T20:47:21.229Z,5.10
2022-08-22T20:52:23.340Z,6.59
2022-08-22T20:57:30.588Z,4.92
2022-08-22T21:02:37.927Z,5.80
2022-08-22T21:07:45.031Z,5.71
2022-08-22T21:12:51.858Z,7.22
2022-08-22T21:17:59.380Z,4.78
2022-08-22T21:23:06.143Z,7.83
2022-08-22T21:28:13.406Z,7.52
2022-08-22T21:33:23.839Z,5.25
2022-08-22T21:38:27.872Z,5.61
2022-08-22T21:43:34.687Z,5.25
2022-08-22T21:48:41.639Z,3.46
2022-08-22T21:58:56.089Z,4.56
2022-08-22T22:04:02.891Z,5.30
2022-08-22T22:09:14.573Z,5.70
2022-08-22T22:14:16.942Z,3.53
2022-08-22T22:19:24.225Z,1.32
2022-08-22T22:24:31.533Z,3.71
2022-08-22T22:29:38.337Z,3.95
2022-08-22T22:34:45.700Z,1.82
2022-08-22T22:39:52.701Z,3.91
2022-08-22T22:45:00.072Z,5.25
2022-08-22T22:50:06.954Z,3.66
2022-08-22T22:55:24.168Z,3.92
2022-08-22T23:00:21.143Z,6.02
2022-08-22T23:05:27.983Z,6.42
2022-08-22T23:10:35.394Z,6.98
2022-08-22T23:15:42.361Z,6.55
2022-08-22T23:20:49.550Z,4.59
2022-08-22T23:25:56.306Z,5.12
2022-08-22T23:31:04.604Z,5.65
2022-08-22T23:36:10.842Z,4.87
2022-08-22T23:41:17.668Z,4.41
2022-08-22T23:46:25.080Z,3.05
2022-08-22T23:51:32.016Z,3.04
2022-08-22T23:56:39.295Z,3.45
